createdAt,value
2018-03-14T00:01:20.071Z,7.30
2018-03-14T00:03:47.563Z,7.30
2018-03-14T00:06:15.141Z,7.30
2018-03-14T00:08:43.370Z,7.40
2018-03-14T00:11:10.843Z,7.40
2018-03-14T00:13:38.307Z,7.40
2018-03-14T00:16:05.789Z,7.40
2018-03-14T00:18:33.262Z,7.40
2018-03-14T00:21:00.736Z,7.40
2018-03-14T00:23:28.189Z,7.40
2018-03-14T00:25:55.675Z,7.40
2018-03-14T00:28:23.144Z,7.50
2018-03-14T00:30:51.328Z,7.50
2018-03-14T00:33:18.852Z,7.50
2018-03-14T00:35:46.346Z,7.50
2018-03-14T00:38:14.595Z,7.50
2018-03-14T00:40:42.075Z,7.50
2018-03-14T00:43:09.540Z,7.50
2018-03-14T00:45:37.040Z,7.60
2018-03-14T00:48:04.505Z,7.60
2018-03-14T00:50:31.978Z,7.50
2018-03-14T00:52:59.459Z,7.60
2018-03-14T00:55:26.936Z,7.60
2018-03-14T00:57:54.421Z,7.60
2018-03-14T01:00:21.883Z,7.60
2018-03-14T01:02:49.387Z,7.60
2018-03-14T01:05:17.672Z,7.50
2018-03-14T01:07:45.154Z,7.50
2018-03-14T01:10:12.645Z,7.50
2018-03-14T01:12:40.120Z,7.60
2018-03-14T01:15:07.608Z,7.50
2018-03-14T01:17:35.130Z,7.50
2018-03-14T01:20:02.599Z,7.50
2018-03-14T01:22:30.060Z,7.40
2018-03-14T01:24:57.529Z,7.40
2018-03-14T01:27:25.004Z,7.40
2018-03-14T01:29:52.478Z,7.40
2018-03-14T01:32:19.944Z,7.30
2018-03-14T01:34:47.419Z,7.30
2018-03-14T01:37:14.879Z,7.30
2018-03-14T01:39:42.351Z,7.30
2018-03-14T01:42:09.808Z,7.30
2018-03-14T01:44:37.279Z,7.30
2018-03-14T01:47:04.734Z,7.40
2018-03-14T01:49:32.216Z,7.30
2018-03-14T01:51:59.679Z,7.30
2018-03-14T01:54:27.164Z,7.30
2018-03-14T01:56:54.622Z,7.20
2018-03-14T01:59:22.086Z,7.20
2018-03-14T02:01:50.363Z,7.20
2018-03-14T02:04:17.846Z,7.30
2018-03-14T02:06:45.330Z,7.30
2018-03-14T02:09:12.797Z,7.20
2018-03-14T02:11:40.290Z,7.30
2018-03-14T02:14:07.807Z,7.30
2018-03-14T02:16:35.276Z,7.30
2018-03-14T02:19:02.744Z,7.40
2018-03-14T02:21:30.267Z,7.40
2018-03-14T02:23:57.749Z,7.40
2018-03-14T02:26:25.226Z,7.40
2018-03-14T02:28:52.688Z,7.40
2018-03-14T02:31:20.150Z,7.40
2018-03-14T02:33:48.401Z,7.40
2018-03-14T02:36:27.516Z,7.30
2018-03-14T02:38:54.992Z,7.40
2018-03-14T02:41:22.452Z,7.40
2018-03-14T02:43:49.935Z,7.30
2018-03-14T02:46:17.405Z,7.30
2018-03-14T02:48:44.855Z,7.20
2018-03-14T02:51:12.303Z,7.20
2018-03-14T02:53:39.766Z,7.10
2018-03-14T02:56:07.219Z,7.10
2018-03-14T02:58:34.716Z,7.10
2018-03-14T03:01:02.171Z,7.10
2018-03-14T03:03:30.415Z,7.10
2018-03-14T03:05:57.863Z,7.10
2018-03-14T03:08:25.311Z,7.20
2018-03-14T03:10:52.775Z,7.10
2018-03-14T03:13:20.227Z,7.10
2018-03-14T03:15:47.690Z,7.10
2018-03-14T03:18:15.147Z,7.10
2018-03-14T03:20:42.616Z,7.10
2018-03-14T03:23:10.072Z,7.10
2018-03-14T03:25:37.548Z,7.10
2018-03-14T03:28:05.794Z,7.10
2018-03-14T03:30:33.306Z,7.10
2018-03-14T03:33:00.787Z,7.10
2018-03-14T03:35:28.261Z,7.10
2018-03-14T03:37:55.718Z,7.10
2018-03-14T03:40:23.173Z,7.10
2018-03-14T03:42:50.632Z,7.20
2018-03-14T03:45:18.079Z,7.20
2018-03-14T03:47:45.546Z,7.20
2018-03-14T03:50:13.042Z,7.20
2018-03-14T03:52:40.533Z,7.30
2018-03-14T03:55:07.988Z,7.30
2018-03-14T03:57:35.447Z,7.30
2018-03-14T04:00:02.904Z,7.30
2018-03-14T04:02:30.381Z,7.30
2018-03-14T04:04:57.835Z,7.30
2018-03-14T04:07:25.287Z,7.30
2018-03-14T04:09:52.751Z,7.30
2018-03-14T04:12:20.228Z,7.30
2018-03-14T04:14:47.687Z,7.30
2018-03-14T04:17:15.137Z,7.30
2018-03-14T04:19:42.603Z,7.30
2018-03-14T04:22:10.056Z,7.30
2018-03-14T04:24:37.507Z,7.30
2018-03-14T04:27:04.962Z,7.40
2018-03-14T04:29:32.510Z,7.40
2018-03-14T04:31:59.971Z,7.40
2018-03-14T04:34:27.423Z,7.40
2018-03-14T04:36:54.879Z,7.30
2018-03-14T04:39:22.339Z,7.30
2018-03-14T04:41:49.878Z,7.30
2018-03-14T04:44:17.346Z,7.40
2018-03-14T04:46:44.786Z,7.30
2018-03-14T04:49:12.259Z,7.30
2018-03-14T04:51:39.723Z,7.30
2018-03-14T04:54:07.182Z,7.30
2018-03-14T04:56:34.652Z,7.20
2018-03-14T04:59:02.094Z,7.20
2018-03-14T05:01:29.554Z,7.20
2018-03-14T05:03:57.020Z,7.20
2018-03-14T05:06:24.479Z,7.30
2018-03-14T05:08:51.959Z,7.30
2018-03-14T05:11:20.187Z,7.30
2018-03-14T05:13:47.643Z,7.30
2018-03-14T05:16:15.871Z,7.40
2018-03-14T05:18:44.098Z,7.40
2018-03-14T05:21:11.632Z,7.40
2018-03-14T05:23:39.099Z,7.40
2018-03-14T05:26:06.570Z,7.40
2018-03-14T05:28:34.027Z,7.40
2018-03-14T05:31:01.515Z,7.40
2018-03-14T05:33:28.970Z,7.30
2018-03-14T05:35:56.415Z,7.30
2018-03-14T05:38:23.878Z,7.30
2018-03-14T05:40:51.327Z,7.30
2018-03-14T05:43:18.795Z,7.30
2018-03-14T05:45:46.255Z,7.30
2018-03-14T05:48:14.487Z,7.30
2018-03-14T05:50:41.943Z,7.30
2018-03-14T05:53:09.427Z,7.30
2018-03-14T05:55:36.883Z,7.30
2018-03-14T05:58:04.368Z,7.40
2018-03-14T06:00:31.823Z,7.40
2018-03-14T06:02:59.299Z,7.40
2018-03-14T06:05:26.757Z,7.40
2018-03-14T06:07:54.229Z,7.40
2018-03-14T06:10:21.690Z,7.40
2018-03-14T06:12:49.208Z,7.30
2018-03-14T06:15:17.427Z,7.30
2018-03-14T06:17:44.910Z,7.30
2018-03-14T06:20:12.366Z,7.40
2018-03-14T06:22:39.876Z,7.40
2018-03-14T06:25:07.329Z,7.40
2018-03-14T06:27:34.784Z,7.40
2018-03-14T06:30:02.324Z,7.40
2018-03-14T06:32:30.543Z,7.50
2018-03-14T06:34:58.059Z,7.50
2018-03-14T06:37:25.514Z,7.50
2018-03-14T06:39:52.978Z,7.50
2018-03-14T06:42:20.438Z,7.40
2018-03-14T06:44:47.897Z,7.40
2018-03-14T06:47:15.351Z,7.50
2018-03-14T06:49:42.829Z,7.50
2018-03-14T06:52:10.304Z,7.50
2018-03-14T06:54:37.768Z,7.40
2018-03-14T06:57:05.221Z,7.40
2018-03-14T06:59:44.291Z,7.50
2018-03-14T07:02:23.521Z,7.50
2018-03-14T07:05:02.772Z,7.50
2018-03-14T07:07:30.223Z,7.50
2018-03-14T07:09:57.691Z,7.50
2018-03-14T07:12:25.143Z,7.60
2018-03-14T07:14:52.603Z,7.60
2018-03-14T07:17:20.067Z,7.60
2018-03-14T07:19:47.529Z,7.60
2018-03-14T07:22:14.999Z,7.60
2018-03-14T07:24:42.451Z,7.60
2018-03-14T07:27:09.911Z,7.60
2018-03-14T07:29:37.368Z,7.70
2018-03-14T07:32:04.839Z,7.60
2018-03-14T07:34:32.307Z,7.60
2018-03-14T07:37:00.154Z,7.60
2018-03-14T07:39:27.603Z,7.60
2018-03-14T07:41:55.070Z,7.70
2018-03-14T07:44:22.520Z,7.70
2018-03-14T07:46:49.983Z,7.70
2018-03-14T07:49:17.440Z,7.70
2018-03-14T07:51:44.916Z,7.70
2018-03-14T07:54:12.373Z,7.70
2018-03-14T07:56:39.832Z,7.70
2018-03-14T07:59:08.244Z,7.80
2018-03-14T08:01:36.541Z,7.80
2018-03-14T08:04:04.008Z,7.80
2018-03-14T08:06:31.483Z,7.80
2018-03-14T08:08:58.967Z,7.80
2018-03-14T08:11:26.433Z,7.90
2018-03-14T08:13:54.036Z,7.90
2018-03-14T08:16:22.150Z,7.90
2018-03-14T08:18:49.643Z,7.90
2018-03-14T08:21:17.100Z,7.90
2018-03-14T08:23:44.572Z,8.00
2018-03-14T08:26:12.028Z,8.00
2018-03-14T08:28:39.503Z,8.00
2018-03-14T08:31:06.967Z,8.10
2018-03-14T08:33:34.455Z,8.10
2018-03-14T08:36:01.983Z,8.10
2018-03-14T08:38:29.447Z,8.10
2018-03-14T08:40:56.915Z,8.20
2018-03-14T08:43:24.391Z,8.10
2018-03-14T08:45:51.851Z,8.20
2018-03-14T08:48:19.338Z,8.20
2018-03-14T08:50:46.834Z,8.20
2018-03-14T08:53:14.306Z,8.20
2018-03-14T08:55:41.784Z,8.20
2018-03-14T08:58:09.269Z,8.20
2018-03-14T09:00:36.738Z,8.30
2018-03-14T09:03:04.207Z,8.30
2018-03-14T09:05:31.692Z,8.30
2018-03-14T09:07:59.167Z,8.30
2018-03-14T09:10:26.637Z,8.40
2018-03-14T09:12:54.863Z,8.40
2018-03-14T09:15:22.344Z,8.40
2018-03-14T09:17:49.817Z,8.40
2018-03-14T09:20:17.310Z,8.40
2018-03-14T09:22:44.788Z,8.50
2018-03-14T09:25:12.252Z,8.50
2018-03-14T09:27:39.722Z,8.60
2018-03-14T09:30:07.178Z,8.60
2018-03-14T09:32:34.649Z,8.70
2018-03-14T09:35:02.106Z,8.70
2018-03-14T09:37:29.579Z,8.80
2018-03-14T09:39:57.824Z,8.90
2018-03-14T09:42:25.304Z,8.90
2018-03-14T09:44:52.767Z,9.00
2018-03-14T09:47:20.263Z,9.10
2018-03-14T09:49:47.747Z,9.10
2018-03-14T09:52:15.223Z,9.20
2018-03-14T09:54:42.691Z,9.20
2018-03-14T09:57:10.191Z,9.30
2018-03-14T09:59:38.407Z,9.20
2018-03-14T10:02:05.867Z,9.20
2018-03-14T10:04:33.344Z,9.30
2018-03-14T10:07:00.864Z,9.50
2018-03-14T10:09:28.356Z,9.60
2018-03-14T10:11:56.592Z,9.70
2018-03-14T10:14:24.068Z,9.70
2018-03-14T10:16:51.550Z,9.90
2018-03-14T10:19:19.053Z,9.90
2018-03-14T10:21:46.509Z,9.90
2018-03-14T10:24:13.977Z,10.00
2018-03-14T10:26:41.450Z,10.10
2018-03-14T10:29:08.975Z,10.20
2018-03-14T10:31:36.412Z,10.30
2018-03-14T10:34:03.876Z,10.30
2018-03-14T10:36:31.352Z,10.30
2018-03-14T10:38:58.845Z,10.20
2018-03-14T10:41:26.328Z,10.20
2018-03-14T10:43:53.780Z,10.10
2018-03-14T10:46:21.254Z,10.10
2018-03-14T10:48:48.728Z,10.10
2018-03-14T10:51:16.207Z,10.00
2018-03-14T10:53:43.710Z,10.00
2018-03-14T10:56:11.224Z,9.90
2018-03-14T10:58:38.725Z,9.90
2018-03-14T11:01:10.128Z,9.90
2018-03-14T11:03:43.131Z,9.80
2018-03-14T11:06:10.612Z,9.80
2018-03-14T11:08:38.067Z,9.90
2018-03-14T11:11:05.540Z,9.90
2018-03-14T11:13:33.014Z,10.10
2018-03-14T11:16:00.472Z,10.10
2018-03-14T11:18:27.956Z,10.20
2018-03-14T11:20:55.428Z,10.40
2018-03-14T11:23:22.944Z,10.50
2018-03-14T11:25:50.422Z,10.60
2018-03-14T11:28:17.927Z,10.60
2018-03-14T11:30:45.392Z,10.70
2018-03-14T11:33:12.894Z,10.80
2018-03-14T11:35:40.355Z,10.80
2018-03-14T11:38:07.870Z,10.80
2018-03-14T11:40:36.102Z,10.90
2018-03-14T11:43:03.581Z,10.90
2018-03-14T11:45:31.084Z,10.90
2018-03-14T11:47:58.553Z,10.80
2018-03-14T11:50:26.030Z,10.80
2018-03-14T11:52:53.495Z,10.80
2018-03-14T11:55:20.985Z,10.80
2018-03-14T11:57:49.227Z,10.70
2018-03-14T12:00:16.703Z,10.70
2018-03-14T12:02:44.175Z,10.70
2018-03-14T12:05:11.651Z,10.70
2018-03-14T12:07:39.117Z,10.70
2018-03-14T12:10:06.629Z,10.80
2018-03-14T12:12:34.071Z,10.90
2018-03-14T12:15:01.600Z,10.90
2018-03-14T12:17:29.075Z,10.90
2018-03-14T12:19:56.563Z,10.80
2018-03-14T12:22:29.594Z,10.80
2018-03-14T12:24:57.087Z,10.80
2018-03-14T12:27:24.559Z,10.90
2018-03-14T12:29:52.064Z,11.00
2018-03-14T12:32:19.506Z,11.10
2018-03-14T12:34:47.126Z,11.20
2018-03-14T12:37:14.568Z,11.30
2018-03-14T12:39:42.044Z,11.30
2018-03-14T12:42:09.513Z,11.50
2018-03-14T12:44:37.007Z,11.60
2018-03-14T12:47:04.483Z,11.70
2018-03-14T12:49:31.953Z,11.80
2018-03-14T12:51:59.426Z,12.00
2018-03-14T12:54:26.908Z,12.00
2018-03-14T12:56:54.385Z,12.00
2018-03-14T12:59:21.839Z,11.90
2018-03-14T13:01:49.339Z,11.90
2018-03-14T13:04:16.819Z,11.90
2018-03-14T13:06:44.339Z,11.90
2018-03-14T13:09:11.768Z,11.90
2018-03-14T13:11:40.033Z,12.10
2018-03-14T13:14:07.517Z,12.10
2018-03-14T13:16:34.982Z,12.00
2018-03-14T13:19:02.465Z,12.00
2018-03-14T13:21:29.971Z,12.00
2018-03-14T13:23:58.213Z,12.00
2018-03-14T13:26:25.680Z,12.00
2018-03-14T13:28:53.221Z,12.10
2018-03-14T13:31:20.704Z,12.10
2018-03-14T13:33:48.185Z,12.10
2018-03-14T13:36:15.655Z,12.10
2018-03-14T13:38:43.120Z,12.10
2018-03-14T13:41:11.432Z,12.10
2018-03-14T13:43:38.900Z,12.00
2018-03-14T13:46:06.370Z,12.00
2018-03-14T13:48:34.638Z,11.90
2018-03-14T13:51:02.136Z,11.90
2018-03-14T13:53:29.619Z,11.90
2018-03-14T13:55:57.140Z,11.90
2018-03-14T13:58:24.677Z,12.00
2018-03-14T14:00:52.129Z,12.00
2018-03-14T14:03:19.653Z,11.90
2018-03-14T14:05:47.136Z,12.00
2018-03-14T14:08:14.620Z,12.00
2018-03-14T14:10:42.115Z,12.00
2018-03-14T14:13:09.677Z,12.10
2018-03-14T14:15:37.153Z,12.10
2018-03-14T14:18:04.622Z,12.10
2018-03-14T14:20:32.079Z,12.10
2018-03-14T14:22:59.599Z,12.20
2018-03-14T14:25:27.068Z,12.10
2018-03-14T14:27:54.548Z,12.10
2018-03-14T14:30:22.010Z,12.00
2018-03-14T14:32:49.486Z,12.00
2018-03-14T14:35:16.951Z,12.00
2018-03-14T14:37:45.200Z,12.10
2018-03-14T14:40:12.663Z,12.10
2018-03-14T14:42:40.123Z,12.10
2018-03-14T14:45:07.580Z,12.10
2018-03-14T14:47:35.109Z,12.10
2018-03-14T14:50:03.358Z,12.20
2018-03-14T14:52:30.817Z,12.20
2018-03-14T14:54:58.322Z,12.20
2018-03-14T14:57:25.775Z,12.30
2018-03-14T14:59:53.243Z,12.30
2018-03-14T15:02:20.704Z,12.30
2018-03-14T15:04:48.175Z,12.30
2018-03-14T15:07:16.441Z,12.20
2018-03-14T15:09:43.918Z,12.20
2018-03-14T15:12:11.393Z,12.10
2018-03-14T15:14:38.868Z,12.10
2018-03-14T15:17:06.334Z,12.10
2018-03-14T15:19:33.801Z,12.10
2018-03-14T15:22:01.265Z,12.00
2018-03-14T15:24:28.747Z,12.00
2018-03-14T15:26:56.211Z,11.90
2018-03-14T15:29:23.696Z,11.80
2018-03-14T15:31:51.167Z,11.80
2018-03-14T15:34:18.628Z,11.80
2018-03-14T15:36:46.102Z,11.80
2018-03-14T15:39:13.576Z,11.80
2018-03-14T15:41:41.042Z,11.70
2018-03-14T15:44:08.501Z,11.70
2018-03-14T15:46:35.976Z,11.70
2018-03-14T15:49:03.451Z,11.60
2018-03-14T15:51:30.918Z,11.70
2018-03-14T15:53:58.397Z,11.70
2018-03-14T15:56:25.880Z,11.70
2018-03-14T15:58:53.345Z,11.70
2018-03-14T16:01:21.832Z,11.60
2018-03-14T16:03:49.291Z,11.60
2018-03-14T16:06:16.766Z,11.60
2018-03-14T16:08:44.234Z,11.50
2018-03-14T16:11:11.741Z,11.50
2018-03-14T16:13:39.214Z,11.40
2018-03-14T16:16:06.671Z,11.40
2018-03-14T16:18:34.143Z,11.40
2018-03-14T16:21:01.610Z,11.30
2018-03-14T16:23:29.113Z,11.30
2018-03-14T16:25:56.579Z,11.30
2018-03-14T16:28:24.097Z,11.30
2018-03-14T16:30:51.555Z,11.20
2018-03-14T16:33:19.045Z,11.20
2018-03-14T16:35:46.507Z,11.10
2018-03-14T16:38:13.993Z,11.10
2018-03-14T16:40:41.453Z,11.10
2018-03-14T16:43:08.931Z,11.00
2018-03-14T16:45:36.399Z,11.00
2018-03-14T16:48:03.879Z,11.00
2018-03-14T16:50:31.414Z,10.90
2018-03-14T16:52:58.871Z,11.00
2018-03-14T16:55:26.348Z,10.90
2018-03-14T16:57:53.814Z,10.90
2018-03-14T17:00:21.280Z,10.80
2018-03-14T17:02:48.744Z,10.80
2018-03-14T17:05:16.236Z,10.80
2018-03-14T17:07:43.703Z,10.70
2018-03-14T17:10:11.233Z,10.70
2018-03-14T17:12:38.656Z,10.60
2018-03-14T17:15:06.119Z,10.50
2018-03-14T17:17:33.588Z,10.40
2018-03-14T17:20:01.063Z,10.40
2018-03-14T17:22:28.533Z,10.20
2018-03-14T17:24:56.016Z,10.10
2018-03-14T17:27:23.665Z,10.00
2018-03-14T17:29:51.151Z,10.00
2018-03-14T17:32:18.626Z,9.90
2018-03-14T17:34:46.087Z,9.80
2018-03-14T17:37:13.604Z,9.80
2018-03-14T17:39:41.079Z,9.70
2018-03-14T17:42:08.571Z,9.70
2018-03-14T17:44:36.031Z,9.60
2018-03-14T17:47:03.505Z,9.60
2018-03-14T17:49:30.962Z,9.50
2018-03-14T17:51:58.431Z,9.50
2018-03-14T17:54:25.900Z,9.40
2018-03-14T17:56:53.380Z,9.30
2018-03-14T17:59:20.911Z,9.30
2018-03-14T18:01:48.380Z,9.20
2018-03-14T18:04:15.879Z,9.20
2018-03-14T18:06:43.371Z,9.20
2018-03-14T18:09:10.840Z,9.10
2018-03-14T18:11:38.338Z,9.10
2018-03-14T18:14:05.875Z,9.00
2018-03-14T18:16:33.345Z,9.00
2018-03-14T18:19:00.815Z,9.00
2018-03-14T18:21:28.315Z,8.90
2018-03-14T18:23:55.785Z,8.90
2018-03-14T18:26:23.255Z,8.90
2018-03-14T18:28:50.743Z,8.80
2018-03-14T18:31:18.212Z,8.80
2018-03-14T18:33:45.679Z,8.70
2018-03-14T18:36:13.144Z,8.60
2018-03-14T18:38:41.404Z,8.50
2018-03-14T18:41:08.913Z,8.50
2018-03-14T18:43:36.382Z,8.50
2018-03-14T18:46:03.847Z,8.40
2018-03-14T18:48:31.339Z,8.40
2018-03-14T18:50:58.816Z,8.40
2018-03-14T18:53:26.296Z,8.40
2018-03-14T18:55:53.773Z,8.30
2018-03-14T18:58:21.259Z,8.30
2018-03-14T19:00:48.786Z,8.30
2018-03-14T19:03:16.220Z,8.20
2018-03-14T19:05:43.691Z,8.20
2018-03-14T19:08:11.195Z,8.20
2018-03-14T19:10:38.684Z,8.10
2018-03-14T19:13:06.164Z,8.10
2018-03-14T19:15:33.667Z,8.10
2018-03-14T19:18:01.139Z,8.00
2018-03-14T19:20:28.605Z,7.90
2018-03-14T19:22:56.074Z,7.80
2018-03-14T19:25:23.547Z,7.80
2018-03-14T19:27:51.023Z,7.70
2018-03-14T19:30:18.489Z,7.70
2018-03-14T19:32:45.965Z,7.70
2018-03-14T19:35:13.440Z,7.60
2018-03-14T19:37:40.895Z,7.50
2018-03-14T19:40:08.383Z,7.50
2018-03-14T19:42:35.863Z,7.40
2018-03-14T19:45:03.367Z,7.40
2018-03-14T19:47:31.624Z,7.30
2018-03-14T19:49:59.111Z,7.30
2018-03-14T19:52:26.611Z,7.30
2018-03-14T19:54:54.071Z,7.70
2018-03-14T19:57:21.556Z,7.60
2018-03-14T19:59:49.016Z,7.50
2018-03-14T20:02:16.491Z,7.40
2018-03-14T20:04:44.728Z,7.20
2018-03-14T20:07:12.269Z,7.20
2018-03-14T20:09:39.706Z,7.10
2018-03-14T20:12:07.194Z,7.10
2018-03-14T20:14:34.656Z,7.00
2018-03-14T20:17:02.144Z,7.00
2018-03-14T20:19:30.375Z,6.90
2018-03-14T20:21:57.843Z,6.90
2018-03-14T20:24:25.323Z,6.80
2018-03-14T20:26:52.810Z,6.80
2018-03-14T20:29:20.384Z,6.70
2018-03-14T20:31:47.859Z,6.70
2018-03-14T20:34:15.331Z,6.60
2018-03-14T20:36:42.791Z,6.60
2018-03-14T20:39:10.274Z,6.50
2018-03-14T20:41:37.755Z,6.50
2018-03-14T20:44:05.250Z,6.50
2018-03-14T20:46:32.706Z,6.50
2018-03-14T20:49:00.183Z,6.40
2018-03-14T20:51:27.659Z,6.40
2018-03-14T20:53:55.136Z,6.40
2018-03-14T20:56:22.604Z,6.30
2018-03-14T20:58:50.080Z,6.30
2018-03-14T21:01:17.548Z,6.20
2018-03-14T21:03:45.023Z,6.20
2018-03-14T21:06:12.489Z,6.10
2018-03-14T21:08:39.950Z,6.10
2018-03-14T21:11:07.419Z,6.10
2018-03-14T21:13:35.669Z,6.00
2018-03-14T21:16:04.904Z,6.00
2018-03-14T21:18:32.382Z,6.00
2018-03-14T21:20:59.852Z,6.00
2018-03-14T21:23:27.336Z,5.90
2018-03-14T21:25:54.843Z,5.90
2018-03-14T21:28:22.285Z,5.80
2018-03-14T21:30:49.789Z,5.80
2018-03-14T21:33:17.254Z,5.80
2018-03-14T21:35:44.739Z,5.80
2018-03-14T21:38:12.984Z,5.70
2018-03-14T21:40:40.459Z,5.70
2018-03-14T21:43:07.923Z,5.70
2018-03-14T21:45:35.394Z,5.70
2018-03-14T21:48:02.857Z,5.60
2018-03-14T21:50:30.323Z,5.60
2018-03-14T21:52:57.849Z,5.60
2018-03-14T21:55:40.833Z,5.60
2018-03-14T21:58:08.303Z,5.60
2018-03-14T22:00:35.783Z,5.80
2018-03-14T22:03:03.243Z,5.70
2018-03-14T22:05:30.719Z,5.60
2018-03-14T22:07:58.245Z,5.60
2018-03-14T22:10:25.655Z,5.50
2018-03-14T22:12:53.140Z,5.40
2018-03-14T22:15:20.603Z,5.40
2018-03-14T22:17:48.089Z,5.30
2018-03-14T22:20:15.540Z,5.30
2018-03-14T22:22:43.011Z,5.20
2018-03-14T22:25:10.466Z,5.20
2018-03-14T22:27:37.957Z,5.20
2018-03-14T22:30:05.410Z,5.20
2018-03-14T22:32:32.891Z,5.20
2018-03-14T22:35:01.119Z,5.10
2018-03-14T22:37:28.611Z,5.10
2018-03-14T22:39:56.087Z,5.10
2018-03-14T22:42:23.548Z,5.00
2018-03-14T22:44:51.020Z,5.00
2018-03-14T22:47:18.480Z,5.00
2018-03-14T22:49:45.968Z,4.90
2018-03-14T22:52:14.206Z,4.80
2018-03-14T22:54:41.681Z,4.90
2018-03-14T22:57:09.152Z,4.80
2018-03-14T22:59:36.632Z,4.80
2018-03-14T23:02:04.091Z,4.80
2018-03-14T23:04:31.563Z,4.80
2018-03-14T23:06:59.030Z,4.80
2018-03-14T23:09:26.511Z,4.80
2018-03-14T23:11:53.966Z,4.70
2018-03-14T23:14:21.450Z,4.80
2018-03-14T23:16:48.908Z,4.70
2018-03-14T23:19:17.138Z,4.70
2018-03-14T23:21:44.599Z,4.70
2018-03-14T23:24:12.831Z,4.60
2018-03-14T23:26:41.063Z,4.60
2018-03-14T23:29:09.291Z,4.50
2018-03-14T23:31:36.757Z,4.50
2018-03-14T23:34:04.217Z,4.50
2018-03-14T23:36:31.687Z,4.50
2018-03-14T23:38:59.166Z,4.50
2018-03-14T23:41:26.626Z,4.40
2018-03-14T23:43:54.144Z,4.40
2018-03-14T23:46:21.614Z,4.40
2018-03-14T23:48:49.072Z,4.40
2018-03-14T23:51:16.549Z,4.40
2018-03-14T23:53:44.011Z,4.40
2018-03-14T23:56:11.467Z,4.30
2018-03-14T23:58:38.936Z,4.30
